sensor_id;sensor_type;location;lat;lon;timestamp;P1;durP1;ratioP1;P2;durP2;ratioP2
17214;SDS011;8723;51.502;6.918;2023-07-08T16:55:34;4.20;;;3.63;;
17214;SDS011;8723;51.502;6.918;2023-07-08T16:58:01;7.38;;;3.63;;
17214;SDS011;8723;51.502;6.918;2023-07-08T17:00:29;4.30;;;3.85;;
17214;SDS011;8723;51.502;6.918;2023-07-08T17:02:57;4.57;;;3.58;;
17214;SDS011;8723;51.502;6.918;2023-07-08T17:05:29;3.92;;;3.53;;
17214;SDS011;8723;51.502;6.918;2023-07-08T17:07:57;5.80;;;3.40;;
17214;SDS011;8723;51.502;6.918;2023-07-08T17:10:24;6.15;;;3.75;;
17214;SDS011;8723;51.502;6.918;2023-07-08T17:12:51;3.65;;;3.30;;
17214;SDS011;8723;51.502;6.918;2023-07-08T17:15:18;4.10;;;3.47;;
17214;SDS011;8723;51.502;6.918;2023-07-08T17:17:49;4.82;;;4.20;;
17214;SDS011;8723;51.502;6.918;2023-07-08T17:20:19;4.38;;;3.90;;
17214;SDS011;8723;51.502;6.918;2023-07-08T17:22:48;4.95;;;3.78;;
17214;SDS011;8723;51.502;6.918;2023-07-08T17:25:15;4.40;;;3.05;;
17214;SDS011;8723;51.502;6.918;2023-07-08T17:27:44;5.07;;;3.80;;
17214;SDS011;8723;51.502;6.918;2023-07-08T17:30:11;6.72;;;6.03;;
17214;SDS011;8723;51.502;6.918;2023-07-08T17:32:40;4.40;;;3.90;;
17214;SDS011;8723;51.502;6.918;2023-07-08T17:35:12;4.78;;;3.83;;
17214;SDS011;8723;51.502;6.918;2023-07-08T17:37:40;5.15;;;4.32;;
17214;SDS011;8723;51.502;6.918;2023-07-08T17:40:12;4.22;;;3.50;;
17214;SDS011;8723;51.502;6.918;2023-07-08T17:42:40;6.30;;;3.85;;
17214;SDS011;8723;51.502;6.918;2023-07-08T17:45:09;4.35;;;3.53;;
17214;SDS011;8723;51.502;6.918;2023-07-08T17:47:36;3.78;;;3.45;;
17214;SDS011;8723;51.502;6.918;2023-07-08T17:50:12;4.18;;;3.42;;
17214;SDS011;8723;51.502;6.918;2023-07-08T17:52:40;4.57;;;3.50;;
17214;SDS011;8723;51.502;6.918;2023-07-08T17:55:07;4.90;;;3.88;;
17214;SDS011;8723;51.502;6.918;2023-07-08T17:57:34;5.07;;;3.93;;
17214;SDS011;8723;51.502;6.918;2023-07-08T18:00:02;4.30;;;3.90;;
17214;SDS011;8723;51.502;6.918;2023-07-08T18:02:30;4.35;;;3.60;;
17214;SDS011;8723;51.502;6.918;2023-07-08T18:04:57;5.75;;;3.70;;
17214;SDS011;8723;51.502;6.918;2023-07-08T18:07:25;4.27;;;3.63;;
17214;SDS011;8723;51.502;6.918;2023-07-08T18:09:52;4.40;;;4.00;;
17214;SDS011;8723;51.502;6.918;2023-07-08T18:12:18;5.63;;;4.83;;
17214;SDS011;8723;51.502;6.918;2023-07-08T18:14:45;5.93;;;4.30;;
17214;SDS011;8723;51.502;6.918;2023-07-08T18:17:12;5.03;;;4.37;;
17214;SDS011;8723;51.502;6.918;2023-07-08T18:19:39;5.18;;;3.75;;
17214;SDS011;8723;51.502;6.918;2023-07-08T18:22:08;4.35;;;3.95;;
17214;SDS011;8723;51.502;6.918;2023-07-08T18:24:37;5.95;;;5.05;;
17214;SDS011;8723;51.502;6.918;2023-07-08T18:27:03;7.30;;;5.20;;
17214;SDS011;8723;51.502;6.918;2023-07-08T18:29:30;5.88;;;5.28;;
17214;SDS011;8723;51.502;6.918;2023-07-08T18:31:57;5.68;;;5.18;;
17214;SDS011;8723;51.502;6.918;2023-07-08T18:34:24;6.93;;;5.03;;
17214;SDS011;8723;51.502;6.918;2023-07-08T18:36:51;6.70;;;5.50;;
17214;SDS011;8723;51.502;6.918;2023-07-08T18:39:18;6.55;;;5.40;;
17214;SDS011;8723;51.502;6.918;2023-07-08T18:41:46;5.70;;;5.20;;
17214;SDS011;8723;51.502;6.918;2023-07-08T18:44:15;5.85;;;5.25;;
17214;SDS011;8723;51.502;6.918;2023-07-08T18:46:48;5.87;;;5.00;;
17214;SDS011;8723;51.502;6.918;2023-07-08T18:49:14;7.10;;;5.10;;
17214;SDS011;8723;51.502;6.918;2023-07-08T18:51:42;5.97;;;5.13;;
17214;SDS011;8723;51.502;6.918;2023-07-08T18:54:13;6.78;;;5.40;;
17214;SDS011;8723;51.502;6.918;2023-07-08T18:56:41;6.70;;;5.18;;
17214;SDS011;8723;51.502;6.918;2023-07-08T18:59:09;6.18;;;5.57;;
17214;SDS011;8723;51.502;6.918;2023-07-08T19:01:36;6.30;;;5.60;;
17214;SDS011;8723;51.502;6.918;2023-07-08T19:04:08;5.80;;;5.20;;
17214;SDS011;8723;51.502;6.918;2023-07-08T19:06:37;6.75;;;5.50;;
17214;SDS011;8723;51.502;6.918;2023-07-08T19:09:04;6.65;;;5.95;;
17214;SDS011;8723;51.502;6.918;2023-07-08T19:11:31;8.27;;;6.00;;
17214;SDS011;8723;51.502;6.918;2023-07-08T19:13:58;8.10;;;6.07;;
17214;SDS011;8723;51.502;6.918;2023-07-08T19:16:26;7.75;;;5.82;;
17214;SDS011;8723;51.502;6.918;2023-07-08T19:18:54;7.65;;;5.68;;
17214;SDS011;8723;51.502;6.918;2023-07-08T19:21:22;6.50;;;5.80;;
17214;SDS011;8723;51.502;6.918;2023-07-08T19:23:51;7.65;;;5.80;;
17214;SDS011;8723;51.502;6.918;2023-07-08T19:26:21;6.67;;;5.70;;
17214;SDS011;8723;51.502;6.918;2023-07-08T19:28:49;9.82;;;5.97;;
17214;SDS011;8723;51.502;6.918;2023-07-08T19:31:17;8.45;;;6.28;;
17214;SDS011;8723;51.502;6.918;2023-07-08T19:33:48;6.65;;;5.95;;
17214;SDS011;8723;51.502;6.918;2023-07-08T19:36:16;6.97;;;5.65;;
17214;SDS011;8723;51.502;6.918;2023-07-08T19:38:44;6.90;;;5.47;;
17214;SDS011;8723;51.502;6.918;2023-07-08T19:41:11;6.50;;;5.90;;
17214;SDS011;8723;51.502;6.918;2023-07-08T19:43:39;7.40;;;6.05;;
17214;SDS011;8723;51.502;6.918;2023-07-08T19:46:08;7.03;;;5.65;;
17214;SDS011;8723;51.502;6.918;2023-07-08T19:48:39;6.70;;;5.70;;
17214;SDS011;8723;51.502;6.918;2023-07-08T19:51:07;7.78;;;6.00;;
17214;SDS011;8723;51.502;6.918;2023-07-08T19:53:34;8.60;;;6.10;;
17214;SDS011;8723;51.502;6.918;2023-07-08T19:56:04;6.95;;;6.07;;
17214;SDS011;8723;51.502;6.918;2023-07-08T19:58:36;8.48;;;5.80;;
17214;SDS011;8723;51.502;6.918;2023-07-08T20:01:03;6.95;;;5.30;;
17214;SDS011;8723;51.502;6.918;2023-07-08T20:03:30;8.65;;;5.80;;
17214;SDS011;8723;51.502;6.918;2023-07-08T20:05:58;6.22;;;5.43;;
17214;SDS011;8723;51.502;6.918;2023-07-08T20:08:27;6.00;;;4.85;;
17214;SDS011;8723;51.502;6.918;2023-07-08T20:10:56;6.90;;;5.15;;
17214;SDS011;8723;51.502;6.918;2023-07-08T20:13:25;8.40;;;5.45;;
17214;SDS011;8723;51.502;6.918;2023-07-08T20:15:56;6.78;;;5.47;;
17214;SDS011;8723;51.502;6.918;2023-07-08T20:18:25;7.88;;;5.72;;
17214;SDS011;8723;51.502;6.918;2023-07-08T20:20:54;6.20;;;5.37;;
17214;SDS011;8723;51.502;6.918;2023-07-08T20:23:23;7.07;;;5.38;;
17214;SDS011;8723;51.502;6.918;2023-07-08T20:25:52;6.95;;;5.70;;
17214;SDS011;8723;51.502;6.918;2023-07-08T20:28:20;5.95;;;5.35;;
17214;SDS011;8723;51.502;6.918;2023-07-08T20:30:52;7.22;;;5.63;;
17214;SDS011;8723;51.502;6.918;2023-07-08T20:33:19;7.60;;;5.30;;
17214;SDS011;8723;51.502;6.918;2023-07-08T20:35:46;7.40;;;5.43;;
17214;SDS011;8723;51.502;6.918;2023-07-08T20:38:14;8.18;;;5.43;;
17214;SDS011;8723;51.502;6.918;2023-07-08T20:40:41;6.72;;;5.20;;
17214;SDS011;8723;51.502;6.918;2023-07-08T20:43:11;10.30;;;7.45;;
17214;SDS011;8723;51.502;6.918;2023-07-08T20:45:41;7.40;;;6.13;;
17214;SDS011;8723;51.502;6.918;2023-07-08T20:48:11;6.93;;;5.70;;
17214;SDS011;8723;51.502;6.918;2023-07-08T20:50:42;9.77;;;5.75;;
17214;SDS011;8723;51.502;6.918;2023-07-08T20:53:10;8.27;;;6.80;;
17214;SDS011;8723;51.502;6.918;2023-07-08T20:55:38;8.60;;;6.35;;
17214;SDS011;8723;51.502;6.918;2023-07-08T20:58:12;6.88;;;5.90;;
17214;SDS011;8723;51.502;6.918;2023-07-08T21:00:40;6.88;;;5.65;;
17214;SDS011;8723;51.502;6.918;2023-07-08T21:03:10;9.07;;;5.60;;
17214;SDS011;8723;51.502;6.918;2023-07-08T21:05:38;8.25;;;5.90;;
17214;SDS011;8723;51.502;6.918;2023-07-08T21:08:05;8.40;;;5.78;;
17214;SDS011;8723;51.502;6.918;2023-07-08T21:10:44;8.18;;;5.60;;
17214;SDS011;8723;51.502;6.918;2023-07-08T21:13:12;7.13;;;5.90;;
17214;SDS011;8723;51.502;6.918;2023-07-08T21:15:39;9.10;;;6.30;;
17214;SDS011;8723;51.502;6.918;2023-07-08T21:18:08;6.60;;;5.80;;
17214;SDS011;8723;51.502;6.918;2023-07-08T21:20:38;6.68;;;5.85;;
17214;SDS011;8723;51.502;6.918;2023-07-08T21:23:06;8.20;;;6.30;;
17214;SDS011;8723;51.502;6.918;2023-07-08T21:25:33;7.32;;;5.78;;
17214;SDS011;8723;51.502;6.918;2023-07-08T21:28:01;6.72;;;5.70;;
17214;SDS011;8723;51.502;6.918;2023-07-08T21:30:31;7.80;;;5.68;;
17214;SDS011;8723;51.502;6.918;2023-07-08T21:32:58;6.60;;;5.88;;
17214;SDS011;8723;51.502;6.918;2023-07-08T21:35:25;7.63;;;5.47;;
17214;SDS011;8723;51.502;6.918;2023-07-08T21:37:56;6.68;;;5.63;;
17214;SDS011;8723;51.502;6.918;2023-07-08T21:40:28;8.40;;;5.60;;
17214;SDS011;8723;51.502;6.918;2023-07-08T21:43:00;6.73;;;5.10;;
17214;SDS011;8723;51.502;6.918;2023-07-08T21:45:27;6.47;;;5.40;;
17214;SDS011;8723;51.502;6.918;2023-07-08T21:47:56;6.38;;;5.63;;
17214;SDS011;8723;51.502;6.918;2023-07-08T21:50:23;7.40;;;5.47;;
17214;SDS011;8723;51.502;6.918;2023-07-08T21:52:58;6.40;;;5.18;;
17214;SDS011;8723;51.502;6.918;2023-07-08T21:55:28;7.63;;;5.65;;
17214;SDS011;8723;51.502;6.918;2023-07-08T21:57:54;7.35;;;5.45;;
17214;SDS011;8723;51.502;6.918;2023-07-08T22:00:21;7.20;;;5.43;;
17214;SDS011;8723;51.502;6.918;2023-07-08T22:02:49;6.93;;;5.20;;
17214;SDS011;8723;51.502;6.918;2023-07-08T22:05:19;6.43;;;4.85;;
17214;SDS011;8723;51.502;6.918;2023-07-08T22:07:47;7.55;;;5.22;;
17214;SDS011;8723;51.502;6.918;2023-07-08T22:10:14;7.15;;;5.35;;
17214;SDS011;8723;51.502;6.918;2023-07-08T22:12:43;7.20;;;5.72;;
17214;SDS011;8723;51.502;6.918;2023-07-08T22:15:19;6.50;;;5.05;;
17214;SDS011;8723;51.502;6.918;2023-07-08T22:17:48;7.40;;;5.18;;
17214;SDS011;8723;51.502;6.918;2023-07-08T22:20:19;5.85;;;5.00;;
17214;SDS011;8723;51.502;6.918;2023-07-08T22:22:47;6.97;;;5.05;;
17214;SDS011;8723;51.502;6.918;2023-07-08T22:25:15;7.00;;;4.78;;
17214;SDS011;8723;51.502;6.918;2023-07-08T22:27:44;5.80;;;5.20;;
17214;SDS011;8723;51.502;6.918;2023-07-08T22:30:12;8.48;;;5.25;;
17214;SDS011;8723;51.502;6.918;2023-07-08T22:32:40;7.28;;;4.80;;
17214;SDS011;8723;51.502;6.918;2023-07-08T22:35:08;7.47;;;5.30;;
17214;SDS011;8723;51.502;6.918;2023-07-08T22:37:41;7.03;;;5.10;;
17214;SDS011;8723;51.502;6.918;2023-07-08T22:40:08;5.87;;;4.77;;
17214;SDS011;8723;51.502;6.918;2023-07-08T22:42:36;6.10;;;4.97;;
17214;SDS011;8723;51.502;6.918;2023-07-08T22:45:03;7.97;;;5.23;;
17214;SDS011;8723;51.502;6.918;2023-07-08T22:47:30;6.90;;;4.60;;
17214;SDS011;8723;51.502;6.918;2023-07-08T22:49:57;5.10;;;4.60;;
17214;SDS011;8723;51.502;6.918;2023-07-08T22:52:28;6.13;;;4.97;;
17214;SDS011;8723;51.502;6.918;2023-07-08T22:55:00;6.18;;;5.15;;
17214;SDS011;8723;51.502;6.918;2023-07-08T22:57:29;5.78;;;4.97;;
17214;SDS011;8723;51.502;6.918;2023-07-08T22:59:56;5.35;;;4.72;;
17214;SDS011;8723;51.502;6.918;2023-07-08T23:02:23;5.30;;;4.75;;
17214;SDS011;8723;51.502;6.918;2023-07-08T23:04:52;6.40;;;5.03;;
17214;SDS011;8723;51.502;6.918;2023-07-08T23:07:22;6.40;;;4.80;;
17214;SDS011;8723;51.502;6.918;2023-07-08T23:09:51;5.00;;;4.50;;
17214;SDS011;8723;51.502;6.918;2023-07-08T23:12:19;7.18;;;4.97;;
17214;SDS011;8723;51.502;6.918;2023-07-08T23:14:46;6.32;;;4.57;;
17214;SDS011;8723;51.502;6.918;2023-07-08T23:17:12;6.97;;;4.82;;
17214;SDS011;8723;51.502;6.918;2023-07-08T23:19:39;5.50;;;4.60;;
17214;SDS011;8723;51.502;6.918;2023-07-08T23:22:10;6.07;;;4.40;;
17214;SDS011;8723;51.502;6.918;2023-07-08T23:24:42;7.25;;;4.82;;
17214;SDS011;8723;51.502;6.918;2023-07-08T23:27:09;5.63;;;4.70;;
17214;SDS011;8723;51.502;6.918;2023-07-08T23:29:38;5.63;;;4.53;;
17214;SDS011;8723;51.502;6.918;2023-07-08T23:32:05;6.05;;;4.70;;
17214;SDS011;8723;51.502;6.918;2023-07-08T23:34:34;4.90;;;4.32;;
17214;SDS011;8723;51.502;6.918;2023-07-08T23:37:01;5.90;;;4.68;;
17214;SDS011;8723;51.502;6.918;2023-07-08T23:39:28;6.97;;;4.68;;
17214;SDS011;8723;51.502;6.918;2023-07-08T23:41:56;6.03;;;4.60;;
17214;SDS011;8723;51.502;6.918;2023-07-08T23:44:24;6.13;;;4.82;;
17214;SDS011;8723;51.502;6.918;2023-07-08T23:46:54;5.20;;;4.70;;
17214;SDS011;8723;51.502;6.918;2023-07-08T23:49:24;6.38;;;4.82;;
17214;SDS011;8723;51.502;6.918;2023-07-08T23:51:52;5.67;;;4.33;;
17214;SDS011;8723;51.502;6.918;2023-07-08T23:54:20;8.00;;;4.70;;
17214;SDS011;8723;51.502;6.918;2023-07-08T23:56:49;6.63;;;4.40;;
17214;SDS011;8723;51.502;6.918;2023-07-08T23:59:17;7.13;;;4.50;;
